sensor_id;sensor_type;location;lat;lon;timestamp;temperature;humidity
59234;DHT22;60776;51.702;7.462;2023-07-29T00:00:58;21.40;99.90
59234;DHT22;60776;51.702;7.462;2023-07-29T00:03:25;21.40;99.90
59234;DHT22;60776;51.702;7.462;2023-07-29T00:05:51;21.30;99.90
59234;DHT22;60776;51.702;7.462;2023-07-29T00:08:16;21.30;99.90
59234;DHT22;60776;51.702;7.462;2023-07-29T00:10:42;21.30;99.90
59234;DHT22;60776;51.702;7.462;2023-07-29T00:13:08;21.30;99.90
59234;DHT22;60776;51.702;7.462;2023-07-29T00:15:33;21.30;99.90
59234;DHT22;60776;51.702;7.462;2023-07-29T00:17:59;21.20;99.90
59234;DHT22;60776;51.702;7.462;2023-07-29T00:20:25;21.20;99.90
59234;DHT22;60776;51.702;7.462;2023-07-29T00:22:50;21.20;99.90
59234;DHT22;60776;51.702;7.462;2023-07-29T00:25:19;21.10;99.90
59234;DHT22;60776;51.702;7.462;2023-07-29T00:27:45;21.10;99.90
59234;DHT22;60776;51.702;7.462;2023-07-29T00:30:11;21.10;99.90
59234;DHT22;60776;51.702;7.462;2023-07-29T00:32:37;21.10;99.90
59234;DHT22;60776;51.702;7.462;2023-07-29T00:35:02;21.00;99.90
59234;DHT22;60776;51.702;7.462;2023-07-29T00:37:31;20.90;99.90
59234;DHT22;60776;51.702;7.462;2023-07-29T00:39:57;20.90;99.90
59234;DHT22;60776;51.702;7.462;2023-07-29T00:42:26;20.90;99.90
59234;DHT22;60776;51.702;7.462;2023-07-29T00:44:51;20.80;99.90
59234;DHT22;60776;51.702;7.462;2023-07-29T00:47:18;20.80;99.90
59234;DHT22;60776;51.702;7.462;2023-07-29T00:49:44;20.80;99.90
59234;DHT22;60776;51.702;7.462;2023-07-29T00:52:11;20.70;99.90
59234;DHT22;60776;51.702;7.462;2023-07-29T00:54:39;20.80;99.90
59234;DHT22;60776;51.702;7.462;2023-07-29T00:57:06;20.80;99.90
59234;DHT22;60776;51.702;7.462;2023-07-29T00:59:32;20.80;99.90
59234;DHT22;60776;51.702;7.462;2023-07-29T01:01:59;20.90;99.90
59234;DHT22;60776;51.702;7.462;2023-07-29T01:04:25;20.90;99.90
59234;DHT22;60776;51.702;7.462;2023-07-29T01:15:16;21.00;99.90
59234;DHT22;60776;51.702;7.462;2023-07-29T01:17:54;21.00;99.90
59234;DHT22;60776;51.702;7.462;2023-07-29T01:20:21;21.00;99.90
59234;DHT22;60776;51.702;7.462;2023-07-29T01:22:49;20.90;99.90
59234;DHT22;60776;51.702;7.462;2023-07-29T01:25:15;20.90;99.90
59234;DHT22;60776;51.702;7.462;2023-07-29T01:27:45;20.80;99.90
59234;DHT22;60776;51.702;7.462;2023-07-29T01:30:12;20.80;99.90
59234;DHT22;60776;51.702;7.462;2023-07-29T01:32:54;20.80;99.90
59234;DHT22;60776;51.702;7.462;2023-07-29T01:35:46;20.80;99.90
59234;DHT22;60776;51.702;7.462;2023-07-29T01:38:16;20.70;99.90
59234;DHT22;60776;51.702;7.462;2023-07-29T01:40:43;20.70;99.90
59234;DHT22;60776;51.702;7.462;2023-07-29T01:43:10;20.80;99.90
59234;DHT22;60776;51.702;7.462;2023-07-29T01:45:36;20.80;99.90
59234;DHT22;60776;51.702;7.462;2023-07-29T01:48:07;20.80;99.90
59234;DHT22;60776;51.702;7.462;2023-07-29T01:50:33;20.80;99.90
59234;DHT22;60776;51.702;7.462;2023-07-29T01:52:59;20.80;99.90
59234;DHT22;60776;51.702;7.462;2023-07-29T01:55:25;20.90;99.90
59234;DHT22;60776;51.702;7.462;2023-07-29T01:57:50;20.90;99.90
59234;DHT22;60776;51.702;7.462;2023-07-29T02:00:18;21.00;99.90
59234;DHT22;60776;51.702;7.462;2023-07-29T02:02:44;20.90;99.90
59234;DHT22;60776;51.702;7.462;2023-07-29T02:05:09;20.90;99.90
59234;DHT22;60776;51.702;7.462;2023-07-29T02:07:35;20.90;99.90
59234;DHT22;60776;51.702;7.462;2023-07-29T02:10:01;20.90;99.90
59234;DHT22;60776;51.702;7.462;2023-07-29T02:12:26;20.90;99.90
59234;DHT22;60776;51.702;7.462;2023-07-29T02:14:52;20.90;99.90
59234;DHT22;60776;51.702;7.462;2023-07-29T02:17:18;20.90;99.90
59234;DHT22;60776;51.702;7.462;2023-07-29T02:19:46;20.90;99.90
59234;DHT22;60776;51.702;7.462;2023-07-29T02:22:16;21.00;99.90
59234;DHT22;60776;51.702;7.462;2023-07-29T02:24:42;21.00;99.90
59234;DHT22;60776;51.702;7.462;2023-07-29T02:27:08;20.90;99.90
59234;DHT22;60776;51.702;7.462;2023-07-29T02:29:33;20.90;99.90
59234;DHT22;60776;51.702;7.462;2023-07-29T02:32:00;20.80;99.90
59234;DHT22;60776;51.702;7.462;2023-07-29T02:34:25;20.80;99.90
59234;DHT22;60776;51.702;7.462;2023-07-29T02:36:51;20.70;99.90
59234;DHT22;60776;51.702;7.462;2023-07-29T02:39:17;20.80;99.90
59234;DHT22;60776;51.702;7.462;2023-07-29T02:41:42;20.70;99.90
59234;DHT22;60776;51.702;7.462;2023-07-29T02:44:08;20.70;99.90
59234;DHT22;60776;51.702;7.462;2023-07-29T02:46:34;20.70;99.90
59234;DHT22;60776;51.702;7.462;2023-07-29T02:49:00;20.70;99.90
59234;DHT22;60776;51.702;7.462;2023-07-29T02:51:26;20.70;99.90
59234;DHT22;60776;51.702;7.462;2023-07-29T02:53:52;20.70;99.90
59234;DHT22;60776;51.702;7.462;2023-07-29T02:56:17;20.70;99.90
59234;DHT22;60776;51.702;7.462;2023-07-29T02:58:46;20.60;99.90
59234;DHT22;60776;51.702;7.462;2023-07-29T03:01:11;20.60;99.90
59234;DHT22;60776;51.702;7.462;2023-07-29T03:03:37;20.60;99.90
59234;DHT22;60776;51.702;7.462;2023-07-29T03:06:08;20.60;99.90
59234;DHT22;60776;51.702;7.462;2023-07-29T03:08:34;20.60;99.90
59234;DHT22;60776;51.702;7.462;2023-07-29T03:11:12;20.70;99.90
59234;DHT22;60776;51.702;7.462;2023-07-29T03:13:38;20.70;99.90
59234;DHT22;60776;51.702;7.462;2023-07-29T03:16:14;20.70;99.90
59234;DHT22;60776;51.702;7.462;2023-07-29T03:18:40;20.70;99.90
59234;DHT22;60776;51.702;7.462;2023-07-29T03:21:07;20.70;99.90
59234;DHT22;60776;51.702;7.462;2023-07-29T03:23:33;20.70;99.90
59234;DHT22;60776;51.702;7.462;2023-07-29T03:26:00;20.80;99.90
59234;DHT22;60776;51.702;7.462;2023-07-29T03:28:28;20.80;99.90
59234;DHT22;60776;51.702;7.462;2023-07-29T03:30:54;20.90;99.90
59234;DHT22;60776;51.702;7.462;2023-07-29T03:33:20;20.90;99.90
59234;DHT22;60776;51.702;7.462;2023-07-29T03:35:46;20.80;99.90
59234;DHT22;60776;51.702;7.462;2023-07-29T03:38:12;20.90;99.90
59234;DHT22;60776;51.702;7.462;2023-07-29T03:40:40;20.90;99.90
59234;DHT22;60776;51.702;7.462;2023-07-29T03:43:06;21.00;99.90
59234;DHT22;60776;51.702;7.462;2023-07-29T03:45:47;21.00;99.90
59234;DHT22;60776;51.702;7.462;2023-07-29T03:48:13;21.00;99.90
59234;DHT22;60776;51.702;7.462;2023-07-29T03:50:41;21.00;99.90
59234;DHT22;60776;51.702;7.462;2023-07-29T03:53:06;21.10;99.90
59234;DHT22;60776;51.702;7.462;2023-07-29T03:55:32;21.00;99.90
59234;DHT22;60776;51.702;7.462;2023-07-29T03:58:01;21.00;99.90
59234;DHT22;60776;51.702;7.462;2023-07-29T04:00:27;20.90;99.90
59234;DHT22;60776;51.702;7.462;2023-07-29T04:02:53;20.90;99.90
59234;DHT22;60776;51.702;7.462;2023-07-29T04:05:19;20.90;99.90
59234;DHT22;60776;51.702;7.462;2023-07-29T04:07:44;20.90;99.90
59234;DHT22;60776;51.702;7.462;2023-07-29T04:10:10;20.90;99.90
59234;DHT22;60776;51.702;7.462;2023-07-29T04:12:36;21.00;99.90
59234;DHT22;60776;51.702;7.462;2023-07-29T04:15:02;21.00;99.90
59234;DHT22;60776;51.702;7.462;2023-07-29T04:17:31;21.10;99.90
59234;DHT22;60776;51.702;7.462;2023-07-29T04:19:56;21.10;99.90
59234;DHT22;60776;51.702;7.462;2023-07-29T04:22:22;21.20;99.90
59234;DHT22;60776;51.702;7.462;2023-07-29T04:24:47;21.20;99.90
59234;DHT22;60776;51.702;7.462;2023-07-29T04:27:13;21.20;99.90
59234;DHT22;60776;51.702;7.462;2023-07-29T04:29:39;21.20;99.90
59234;DHT22;60776;51.702;7.462;2023-07-29T04:32:05;21.20;99.90
59234;DHT22;60776;51.702;7.462;2023-07-29T04:34:31;21.20;99.90
59234;DHT22;60776;51.702;7.462;2023-07-29T04:36:57;21.20;99.90
59234;DHT22;60776;51.702;7.462;2023-07-29T04:39:22;21.20;99.90
59234;DHT22;60776;51.702;7.462;2023-07-29T04:41:48;21.30;99.90
59234;DHT22;60776;51.702;7.462;2023-07-29T04:44:14;21.30;99.90
59234;DHT22;60776;51.702;7.462;2023-07-29T04:46:39;21.30;99.90
59234;DHT22;60776;51.702;7.462;2023-07-29T04:49:05;21.30;99.90
59234;DHT22;60776;51.702;7.462;2023-07-29T04:51:31;21.20;99.90
59234;DHT22;60776;51.702;7.462;2023-07-29T04:53:59;21.20;99.90
59234;DHT22;60776;51.702;7.462;2023-07-29T04:56:25;21.10;99.90
59234;DHT22;60776;51.702;7.462;2023-07-29T04:58:51;21.00;99.90
59234;DHT22;60776;51.702;7.462;2023-07-29T05:01:17;21.00;99.90
59234;DHT22;60776;51.702;7.462;2023-07-29T05:03:43;21.00;99.90
59234;DHT22;60776;51.702;7.462;2023-07-29T05:06:09;21.10;99.90
59234;DHT22;60776;51.702;7.462;2023-07-29T05:08:34;21.20;99.90
59234;DHT22;60776;51.702;7.462;2023-07-29T05:11:00;21.30;99.90
59234;DHT22;60776;51.702;7.462;2023-07-29T05:13:25;21.30;99.90
59234;DHT22;60776;51.702;7.462;2023-07-29T05:15:51;21.40;99.90
59234;DHT22;60776;51.702;7.462;2023-07-29T05:18:17;21.50;99.90
59234;DHT22;60776;51.702;7.462;2023-07-29T05:20:43;21.60;99.90
59234;DHT22;60776;51.702;7.462;2023-07-29T05:23:09;21.60;99.90
59234;DHT22;60776;51.702;7.462;2023-07-29T05:25:34;21.60;99.90
59234;DHT22;60776;51.702;7.462;2023-07-29T05:28:03;21.50;99.90
59234;DHT22;60776;51.702;7.462;2023-07-29T05:30:30;21.50;99.90
59234;DHT22;60776;51.702;7.462;2023-07-29T05:32:59;21.50;99.90
59234;DHT22;60776;51.702;7.462;2023-07-29T05:35:25;21.50;99.90
59234;DHT22;60776;51.702;7.462;2023-07-29T05:37:51;21.60;99.90
59234;DHT22;60776;51.702;7.462;2023-07-29T05:40:17;21.60;99.90
59234;DHT22;60776;51.702;7.462;2023-07-29T05:42:42;21.80;99.90
59234;DHT22;60776;51.702;7.462;2023-07-29T05:45:09;22.00;99.90
59234;DHT22;60776;51.702;7.462;2023-07-29T05:47:35;22.20;99.90
59234;DHT22;60776;51.702;7.462;2023-07-29T05:50:00;22.40;99.90
59234;DHT22;60776;51.702;7.462;2023-07-29T05:52:30;22.60;99.90
59234;DHT22;60776;51.702;7.462;2023-07-29T05:54:56;22.80;99.90
59234;DHT22;60776;51.702;7.462;2023-07-29T05:57:21;23.10;99.90
59234;DHT22;60776;51.702;7.462;2023-07-29T05:59:47;23.20;99.90
59234;DHT22;60776;51.702;7.462;2023-07-29T06:02:13;23.50;99.90
59234;DHT22;60776;51.702;7.462;2023-07-29T06:04:38;23.50;99.90
59234;DHT22;60776;51.702;7.462;2023-07-29T06:07:05;23.50;99.90
59234;DHT22;60776;51.702;7.462;2023-07-29T06:09:30;23.40;99.90
59234;DHT22;60776;51.702;7.462;2023-07-29T06:11:56;23.20;99.90
59234;DHT22;60776;51.702;7.462;2023-07-29T06:14:22;23.00;99.90
59234;DHT22;60776;51.702;7.462;2023-07-29T06:16:50;22.80;99.90
59234;DHT22;60776;51.702;7.462;2023-07-29T06:19:15;22.70;99.90
59234;DHT22;60776;51.702;7.462;2023-07-29T06:21:41;22.60;99.90
59234;DHT22;60776;51.702;7.462;2023-07-29T06:24:07;22.60;99.90
59234;DHT22;60776;51.702;7.462;2023-07-29T06:26:33;22.50;99.90
59234;DHT22;60776;51.702;7.462;2023-07-29T06:28:58;22.40;99.90
59234;DHT22;60776;51.702;7.462;2023-07-29T06:31:24;22.40;99.90
59234;DHT22;60776;51.702;7.462;2023-07-29T06:33:49;22.30;99.90
59234;DHT22;60776;51.702;7.462;2023-07-29T06:36:15;22.20;99.90
59234;DHT22;60776;51.702;7.462;2023-07-29T06:38:41;22.10;99.90
59234;DHT22;60776;51.702;7.462;2023-07-29T06:41:07;22.10;99.90
59234;DHT22;60776;51.702;7.462;2023-07-29T06:43:33;22.00;99.90
59234;DHT22;60776;51.702;7.462;2023-07-29T06:45:58;22.20;99.90
59234;DHT22;60776;51.702;7.462;2023-07-29T06:48:24;22.30;99.90
59234;DHT22;60776;51.702;7.462;2023-07-29T06:50:50;22.40;99.90
59234;DHT22;60776;51.702;7.462;2023-07-29T06:53:16;22.50;99.90
59234;DHT22;60776;51.702;7.462;2023-07-29T06:55:42;22.60;99.90
59234;DHT22;60776;51.702;7.462;2023-07-29T06:58:09;22.80;99.90
59234;DHT22;60776;51.702;7.462;2023-07-29T07:00:35;22.90;99.90
59234;DHT22;60776;51.702;7.462;2023-07-29T07:03:00;23.00;99.90
59234;DHT22;60776;51.702;7.462;2023-07-29T07:05:26;23.10;99.90
59234;DHT22;60776;51.702;7.462;2023-07-29T07:07:52;23.20;99.90
59234;DHT22;60776;51.702;7.462;2023-07-29T07:10:18;23.30;99.90
59234;DHT22;60776;51.702;7.462;2023-07-29T07:12:44;23.40;99.90
59234;DHT22;60776;51.702;7.462;2023-07-29T07:15:09;23.50;99.90
59234;DHT22;60776;51.702;7.462;2023-07-29T07:17:35;23.50;99.90
59234;DHT22;60776;51.702;7.462;2023-07-29T07:20:01;23.40;99.90
59234;DHT22;60776;51.702;7.462;2023-07-29T07:22:27;23.40;99.90
59234;DHT22;60776;51.702;7.462;2023-07-29T07:24:52;23.50;99.90
59234;DHT22;60776;51.702;7.462;2023-07-29T07:27:18;23.50;99.90
59234;DHT22;60776;51.702;7.462;2023-07-29T07:29:44;23.50;99.90
59234;DHT22;60776;51.702;7.462;2023-07-29T07:32:11;23.50;99.90
59234;DHT22;60776;51.702;7.462;2023-07-29T07:34:37;23.60;99.90
59234;DHT22;60776;51.702;7.462;2023-07-29T07:37:03;23.70;99.90
59234;DHT22;60776;51.702;7.462;2023-07-29T07:39:30;23.80;99.90
59234;DHT22;60776;51.702;7.462;2023-07-29T07:41:56;24.00;99.90
59234;DHT22;60776;51.702;7.462;2023-07-29T07:44:22;24.30;99.90
59234;DHT22;60776;51.702;7.462;2023-07-29T07:46:48;25.00;99.90
59234;DHT22;60776;51.702;7.462;2023-07-29T07:49:13;25.60;99.90
59234;DHT22;60776;51.702;7.462;2023-07-29T07:51:39;26.10;99.90
59234;DHT22;60776;51.702;7.462;2023-07-29T07:54:05;27.00;99.90
59234;DHT22;60776;51.702;7.462;2023-07-29T07:56:30;27.90;99.90
59234;DHT22;60776;51.702;7.462;2023-07-29T07:58:56;28.70;99.90
59234;DHT22;60776;51.702;7.462;2023-07-29T08:01:22;29.60;99.90
59234;DHT22;60776;51.702;7.462;2023-07-29T08:03:47;30.30;99.90
59234;DHT22;60776;51.702;7.462;2023-07-29T08:06:13;30.90;89.80
59234;DHT22;60776;51.702;7.462;2023-07-29T08:08:39;31.40;88.00
59234;DHT22;60776;51.702;7.462;2023-07-29T08:11:04;32.20;84.60
59234;DHT22;60776;51.702;7.462;2023-07-29T08:13:30;33.10;80.00
59234;DHT22;60776;51.702;7.462;2023-07-29T08:15:55;34.80;71.10
59234;DHT22;60776;51.702;7.462;2023-07-29T08:18:21;36.20;66.70
59234;DHT22;60776;51.702;7.462;2023-07-29T08:20:59;37.60;62.00
59234;DHT22;60776;51.702;7.462;2023-07-29T08:23:29;38.10;54.10
59234;DHT22;60776;51.702;7.462;2023-07-29T08:25:57;37.80;54.00
59234;DHT22;60776;51.702;7.462;2023-07-29T08:28:27;37.90;53.20
59234;DHT22;60776;51.702;7.462;2023-07-29T08:30:53;37.80;51.40
59234;DHT22;60776;51.702;7.462;2023-07-29T08:33:19;37.10;50.50
59234;DHT22;60776;51.702;7.462;2023-07-29T08:35:45;36.60;51.10
59234;DHT22;60776;51.702;7.462;2023-07-29T08:38:10;36.30;52.00
59234;DHT22;60776;51.702;7.462;2023-07-29T08:40:39;35.80;50.60
59234;DHT22;60776;51.702;7.462;2023-07-29T08:43:07;35.20;51.80
59234;DHT22;60776;51.702;7.462;2023-07-29T08:45:35;35.40;52.40
59234;DHT22;60776;51.702;7.462;2023-07-29T08:48:07;36.70;52.60
59234;DHT22;60776;51.702;7.462;2023-07-29T08:50:36;37.70;50.20
59234;DHT22;60776;51.702;7.462;2023-07-29T08:53:04;38.30;49.00
59234;DHT22;60776;51.702;7.462;2023-07-29T08:55:31;38.10;48.00
59234;DHT22;60776;51.702;7.462;2023-07-29T08:58:00;38.00;47.50
59234;DHT22;60776;51.702;7.462;2023-07-29T09:00:27;37.40;48.50
59234;DHT22;60776;51.702;7.462;2023-07-29T09:02:53;36.70;48.20
59234;DHT22;60776;51.702;7.462;2023-07-29T09:05:20;35.90;49.40
59234;DHT22;60776;51.702;7.462;2023-07-29T09:07:47;35.30;51.00
59234;DHT22;60776;51.702;7.462;2023-07-29T09:10:14;35.70;49.70
59234;DHT22;60776;51.702;7.462;2023-07-29T09:12:40;36.30;50.40
59234;DHT22;60776;51.702;7.462;2023-07-29T09:15:06;37.60;50.50
59234;DHT22;60776;51.702;7.462;2023-07-29T09:17:33;38.90;48.80
59234;DHT22;60776;51.702;7.462;2023-07-29T09:19:59;39.00;47.30
59234;DHT22;60776;51.702;7.462;2023-07-29T09:22:27;38.70;45.60
59234;DHT22;60776;51.702;7.462;2023-07-29T09:24:53;37.70;46.10
59234;DHT22;60776;51.702;7.462;2023-07-29T09:27:25;37.60;47.20
59234;DHT22;60776;51.702;7.462;2023-07-29T09:29:52;37.80;46.40
59234;DHT22;60776;51.702;7.462;2023-07-29T09:34:45;37.80;46.40
59234;DHT22;60776;51.702;7.462;2023-07-29T09:37:21;38.10;45.90
59234;DHT22;60776;51.702;7.462;2023-07-29T09:39:48;38.90;44.30
59234;DHT22;60776;51.702;7.462;2023-07-29T09:42:21;38.50;44.10
59234;DHT22;60776;51.702;7.462;2023-07-29T09:44:49;38.10;44.30
59234;DHT22;60776;51.702;7.462;2023-07-29T09:47:20;37.80;45.70
59234;DHT22;60776;51.702;7.462;2023-07-29T09:49:46;38.20;45.40
59234;DHT22;60776;51.702;7.462;2023-07-29T09:52:15;39.00;44.60
59234;DHT22;60776;51.702;7.462;2023-07-29T09:54:43;39.30;44.00
59234;DHT22;60776;51.702;7.462;2023-07-29T09:57:08;39.40;43.20
59234;DHT22;60776;51.702;7.462;2023-07-29T09:59:34;39.10;42.40
59234;DHT22;60776;51.702;7.462;2023-07-29T10:02:00;38.80;43.60
59234;DHT22;60776;51.702;7.462;2023-07-29T10:04:26;38.80;43.20
59234;DHT22;60776;51.702;7.462;2023-07-29T10:06:52;38.10;43.70
59234;DHT22;60776;51.702;7.462;2023-07-29T10:09:19;37.90;43.70
59234;DHT22;60776;51.702;7.462;2023-07-29T10:11:46;37.10;44.50
59234;DHT22;60776;51.702;7.462;2023-07-29T10:14:11;37.20;45.60
59234;DHT22;60776;51.702;7.462;2023-07-29T10:16:40;36.90;45.20
59234;DHT22;60776;51.702;7.462;2023-07-29T10:19:07;36.00;45.80
59234;DHT22;60776;51.702;7.462;2023-07-29T10:21:38;35.50;46.90
59234;DHT22;60776;51.702;7.462;2023-07-29T10:24:07;35.70;47.50
59234;DHT22;60776;51.702;7.462;2023-07-29T10:26:34;36.20;47.60
59234;DHT22;60776;51.702;7.462;2023-07-29T10:29:04;35.90;46.30
59234;DHT22;60776;51.702;7.462;2023-07-29T10:31:34;35.30;47.30
59234;DHT22;60776;51.702;7.462;2023-07-29T10:34:00;34.70;47.80
59234;DHT22;60776;51.702;7.462;2023-07-29T10:36:27;34.10;48.30
59234;DHT22;60776;51.702;7.462;2023-07-29T10:38:54;33.90;49.80
59234;DHT22;60776;51.702;7.462;2023-07-29T10:41:19;35.40;50.10
59234;DHT22;60776;51.702;7.462;2023-07-29T10:43:48;37.60;48.20
59234;DHT22;60776;51.702;7.462;2023-07-29T10:46:21;38.20;44.50
59234;DHT22;60776;51.702;7.462;2023-07-29T10:51:24;37.90;45.00
59234;DHT22;60776;51.702;7.462;2023-07-29T10:54:19;37.10;44.60
59234;DHT22;60776;51.702;7.462;2023-07-29T10:56:48;37.40;47.10
59234;DHT22;60776;51.702;7.462;2023-07-29T11:01:56;40.10;43.20
59234;DHT22;60776;51.702;7.462;2023-07-29T11:15:16;44.50;37.80
59234;DHT22;60776;51.702;7.462;2023-07-29T11:17:53;44.70;37.80
59234;DHT22;60776;51.702;7.462;2023-07-29T11:20:22;43.90;37.70
59234;DHT22;60776;51.702;7.462;2023-07-29T11:22:48;43.60;38.30
59234;DHT22;60776;51.702;7.462;2023-07-29T11:25:15;42.90;37.00
59234;DHT22;60776;51.702;7.462;2023-07-29T11:27:41;41.40;38.50
59234;DHT22;60776;51.702;7.462;2023-07-29T11:30:09;40.40;39.90
59234;DHT22;60776;51.702;7.462;2023-07-29T11:32:36;39.40;41.30
59234;DHT22;60776;51.702;7.462;2023-07-29T11:35:09;38.50;42.30
59234;DHT22;60776;51.702;7.462;2023-07-29T11:37:36;39.60;43.00
59234;DHT22;60776;51.702;7.462;2023-07-29T11:40:03;39.60;41.20
59234;DHT22;60776;51.702;7.462;2023-07-29T11:42:32;38.50;41.70
59234;DHT22;60776;51.702;7.462;2023-07-29T11:44:59;37.40;42.90
59234;DHT22;60776;51.702;7.462;2023-07-29T11:47:24;36.30;44.40
59234;DHT22;60776;51.702;7.462;2023-07-29T11:49:50;35.10;45.40
59234;DHT22;60776;51.702;7.462;2023-07-29T11:52:16;34.20;47.20
59234;DHT22;60776;51.702;7.462;2023-07-29T11:54:51;33.40;48.30
59234;DHT22;60776;51.702;7.462;2023-07-29T11:57:17;32.90;50.00
59234;DHT22;60776;51.702;7.462;2023-07-29T11:59:44;32.80;50.30
59234;DHT22;60776;51.702;7.462;2023-07-29T12:02:12;33.00;50.90
59234;DHT22;60776;51.702;7.462;2023-07-29T12:04:39;32.80;50.30
59234;DHT22;60776;51.702;7.462;2023-07-29T12:07:05;33.20;51.10
59234;DHT22;60776;51.702;7.462;2023-07-29T12:09:31;34.90;50.60
59234;DHT22;60776;51.702;7.462;2023-07-29T12:11:58;36.90;47.30
59234;DHT22;60776;51.702;7.462;2023-07-29T12:14:30;38.30;45.90
59234;DHT22;60776;51.702;7.462;2023-07-29T12:17:00;38.40;43.60
59234;DHT22;60776;51.702;7.462;2023-07-29T12:19:34;37.10;43.20
59234;DHT22;60776;51.702;7.462;2023-07-29T12:22:05;35.40;45.30
59234;DHT22;60776;51.702;7.462;2023-07-29T12:24:32;34.10;47.40
59234;DHT22;60776;51.702;7.462;2023-07-29T12:26:59;33.90;49.30
59234;DHT22;60776;51.702;7.462;2023-07-29T12:29:25;35.20;50.00
59234;DHT22;60776;51.702;7.462;2023-07-29T12:32:03;36.70;47.90
59234;DHT22;60776;51.702;7.462;2023-07-29T12:34:30;37.90;44.20
59234;DHT22;60776;51.702;7.462;2023-07-29T12:36:58;38.80;44.20
59234;DHT22;60776;51.702;7.462;2023-07-29T12:39:30;39.80;43.30
59234;DHT22;60776;51.702;7.462;2023-07-29T12:41:57;40.50;41.40
59234;DHT22;60776;51.702;7.462;2023-07-29T12:44:24;40.20;40.90
59234;DHT22;60776;51.702;7.462;2023-07-29T12:46:50;39.70;41.40
59234;DHT22;60776;51.702;7.462;2023-07-29T12:49:17;38.50;42.00
59234;DHT22;60776;51.702;7.462;2023-07-29T12:51:42;37.30;43.40
59234;DHT22;60776;51.702;7.462;2023-07-29T12:54:08;36.10;44.60
59234;DHT22;60776;51.702;7.462;2023-07-29T12:56:34;35.30;45.90
59234;DHT22;60776;51.702;7.462;2023-07-29T12:59:01;34.70;47.50
59234;DHT22;60776;51.702;7.462;2023-07-29T13:01:27;33.90;48.00
59234;DHT22;60776;51.702;7.462;2023-07-29T13:03:53;33.40;49.20
59234;DHT22;60776;51.702;7.462;2023-07-29T13:06:19;33.30;49.80
59234;DHT22;60776;51.702;7.462;2023-07-29T13:08:45;33.30;49.70
59234;DHT22;60776;51.702;7.462;2023-07-29T13:11:12;33.20;49.60
59234;DHT22;60776;51.702;7.462;2023-07-29T13:13:37;33.10;49.90
59234;DHT22;60776;51.702;7.462;2023-07-29T13:16:03;33.20;50.80
59234;DHT22;60776;51.702;7.462;2023-07-29T13:18:29;33.30;49.90
59234;DHT22;60776;51.702;7.462;2023-07-29T13:20:55;33.00;50.00
59234;DHT22;60776;51.702;7.462;2023-07-29T13:23:21;32.90;50.90
59234;DHT22;60776;51.702;7.462;2023-07-29T13:25:47;32.50;51.30
59234;DHT22;60776;51.702;7.462;2023-07-29T13:28:12;32.10;51.70
59234;DHT22;60776;51.702;7.462;2023-07-29T13:30:41;31.80;51.90
59234;DHT22;60776;51.702;7.462;2023-07-29T13:33:08;31.50;52.10
59234;DHT22;60776;51.702;7.462;2023-07-29T13:35:33;31.30;52.80
59234;DHT22;60776;51.702;7.462;2023-07-29T13:38:00;31.10;53.30
59234;DHT22;60776;51.702;7.462;2023-07-29T13:40:26;31.00;54.00
59234;DHT22;60776;51.702;7.462;2023-07-29T13:42:51;31.20;54.40
59234;DHT22;60776;51.702;7.462;2023-07-29T13:45:20;31.40;54.30
59234;DHT22;60776;51.702;7.462;2023-07-29T13:47:46;31.40;53.90
59234;DHT22;60776;51.702;7.462;2023-07-29T13:50:11;31.40;53.90
59234;DHT22;60776;51.702;7.462;2023-07-29T13:52:37;31.30;52.50
59234;DHT22;60776;51.702;7.462;2023-07-29T13:55:04;31.30;52.60
59234;DHT22;60776;51.702;7.462;2023-07-29T13:57:31;31.40;52.90
59234;DHT22;60776;51.702;7.462;2023-07-29T13:59:57;31.40;52.70
59234;DHT22;60776;51.702;7.462;2023-07-29T14:02:22;31.30;52.20
59234;DHT22;60776;51.702;7.462;2023-07-29T14:04:48;31.00;52.40
59234;DHT22;60776;51.702;7.462;2023-07-29T14:07:14;30.70;52.80
59234;DHT22;60776;51.702;7.462;2023-07-29T14:09:39;30.30;53.10
59234;DHT22;60776;51.702;7.462;2023-07-29T14:12:06;29.90;53.90
59234;DHT22;60776;51.702;7.462;2023-07-29T14:14:32;29.60;54.50
59234;DHT22;60776;51.702;7.462;2023-07-29T14:16:57;29.20;55.10
59234;DHT22;60776;51.702;7.462;2023-07-29T14:19:23;28.80;57.10
59234;DHT22;60776;51.702;7.462;2023-07-29T14:21:49;28.50;58.70
59234;DHT22;60776;51.702;7.462;2023-07-29T14:24:15;28.20;59.90
59234;DHT22;60776;51.702;7.462;2023-07-29T14:26:42;27.70;62.80
59234;DHT22;60776;51.702;7.462;2023-07-29T14:29:07;27.20;66.70
59234;DHT22;60776;51.702;7.462;2023-07-29T14:31:33;26.40;73.50
59234;DHT22;60776;51.702;7.462;2023-07-29T14:33:59;25.50;99.90
59234;DHT22;60776;51.702;7.462;2023-07-29T14:36:25;24.40;99.90
59234;DHT22;60776;51.702;7.462;2023-07-29T14:38:53;23.70;99.90
59234;DHT22;60776;51.702;7.462;2023-07-29T14:41:19;23.00;99.90
59234;DHT22;60776;51.702;7.462;2023-07-29T14:43:44;22.50;99.90
59234;DHT22;60776;51.702;7.462;2023-07-29T14:46:10;22.10;99.90
59234;DHT22;60776;51.702;7.462;2023-07-29T14:48:38;22.00;99.90
59234;DHT22;60776;51.702;7.462;2023-07-29T14:51:04;21.80;99.90
59234;DHT22;60776;51.702;7.462;2023-07-29T14:53:32;21.70;99.90
59234;DHT22;60776;51.702;7.462;2023-07-29T14:55:58;21.70;99.90
59234;DHT22;60776;51.702;7.462;2023-07-29T14:58:23;21.60;99.90
59234;DHT22;60776;51.702;7.462;2023-07-29T15:00:51;21.50;99.90
59234;DHT22;60776;51.702;7.462;2023-07-29T15:03:17;21.50;99.90
59234;DHT22;60776;51.702;7.462;2023-07-29T15:05:42;21.50;99.90
59234;DHT22;60776;51.702;7.462;2023-07-29T15:08:08;21.60;99.90
59234;DHT22;60776;51.702;7.462;2023-07-29T15:10:37;21.60;99.90
59234;DHT22;60776;51.702;7.462;2023-07-29T15:13:02;21.70;99.90
59234;DHT22;60776;51.702;7.462;2023-07-29T15:15:28;21.70;99.90
59234;DHT22;60776;51.702;7.462;2023-07-29T15:17:54;21.80;99.90
59234;DHT22;60776;51.702;7.462;2023-07-29T15:20:19;22.00;99.90
59234;DHT22;60776;51.702;7.462;2023-07-29T15:22:45;22.00;99.90
59234;DHT22;60776;51.702;7.462;2023-07-29T15:25:10;22.10;99.90
59234;DHT22;60776;51.702;7.462;2023-07-29T15:27:37;22.30;99.90
59234;DHT22;60776;51.702;7.462;2023-07-29T15:30:03;22.50;99.90
59234;DHT22;60776;51.702;7.462;2023-07-29T15:32:29;22.70;99.90
59234;DHT22;60776;51.702;7.462;2023-07-29T15:34:55;22.90;99.90
59234;DHT22;60776;51.702;7.462;2023-07-29T15:37:20;23.00;99.90
59234;DHT22;60776;51.702;7.462;2023-07-29T15:39:46;23.10;99.90
59234;DHT22;60776;51.702;7.462;2023-07-29T15:42:12;23.20;99.90
59234;DHT22;60776;51.702;7.462;2023-07-29T15:44:37;23.10;99.90
59234;DHT22;60776;51.702;7.462;2023-07-29T15:47:03;23.30;99.90
59234;DHT22;60776;51.702;7.462;2023-07-29T15:49:29;23.50;99.90
59234;DHT22;60776;51.702;7.462;2023-07-29T15:51:55;23.60;99.90
59234;DHT22;60776;51.702;7.462;2023-07-29T15:54:20;23.80;99.90